Latest Weather Observations for Launceston Airport

IDT60801

Issued at 3:31 pm EDT Friday 30 January 2015 (issued every 30 minutes, with the page automatically refreshed every 10 minutes)

About weather observations | Map of weather stations | Latest weather observations for TAS | Other Formats
Station Details ID: 091311 Name: LAUNCESTON AIRPORT Lat: -41.55 Lon: 147.21 Height: 166.9 m
Data from the previous 72 hours. | See also: Recent months at Launceston Airport
Date/Time
EDT
Temp
°C
App
Temp
°C
Dew
Point
Rel
Hum
%
Delta-T
°C
Wind Press
QNH
hPa
Press
MSL
hPa
Rain
since 9 am
mm
Dir
 
Spd
km/h
Gust
km/h
Spd
kts
Gust
kts
30/03:30pm 17.6 9.6 5.5 45 5.9 SSE 37 56 20 30 1014.1 1013.7 0.0
30/03:25pm 17.9 9.8 5.2 43 6.2 SSE 37 56 20 30 1014.1 1013.7 0.0
30/03:00pm 18.0 10.2 6.5 47 5.7 SSE 37 48 20 26 1014.3 1013.9 0.0
30/02:30pm 16.9 9.5 6.7 51 5.1 SSE 35 48 19 26 1014.5 1014.1 0.0
30/02:00pm 16.2 7.9 6.1 51 4.9 SSE 39 50 21 27 1014.9 1014.5 0.0
30/01:30pm 16.8 9.7 6.3 50 5.2 SSE 33 44 18 24 1015.0 1014.6 0.0
30/01:00pm 17.3 9.0 6.2 48 5.5 SE 39 57 21 31 1015.3 1014.9 0.0
30/12:44pm 16.3 8.7 5.9 50 5.1 SE 35 54 19 29 1015.5 1015.1 0.0
30/12:30pm 15.8 8.2 5.7 51 4.9 SE 35 50 19 27 1015.6 1015.2 0.0
30/12:08pm 14.7 6.8 6.0 56 4.2 SE 37 56 20 30 1015.9 1015.5 0.0
30/12:00pm 14.8 6.5 5.9 55 4.3 SE 39 50 21 27 1015.9 1015.5 0.0
30/11:30am 15.2 7.3 6.2 55 4.4 SSE 37 54 20 29 1015.9 1015.5 0.0
30/11:01am 13.8 5.0 7.3 65 3.2 SSE 43 61 23 33 1016.3 1015.9 0.0
30/11:00am 13.8 4.8 7.1 64 3.3 SSE 44 61 24 33 1016.3 1015.9 0.0
30/10:36am 13.8 5.6 6.4 61 3.6 SE 39 59 21 32 1016.6 1016.2 0.0
30/10:30am 14.0 6.6 6.6 61 3.6 SE 35 52 19 28 1016.5 1016.1 0.0
30/10:00am 14.1 6.6 6.2 59 3.8 SE 35 50 19 27 1016.7 1016.3 0.0
30/09:32am 13.9 5.6 6.0 59 3.8 SE 39 57 21 31 1016.9 1016.6 0.0
30/09:30am 14.0 5.4 6.4 60 3.7 SE 41 57 22 31 1017.0 1016.7 0.0
30/09:00am 14.2 6.8 6.6 60 3.7 SSE 35 50 19 27 1017.1 1016.8 0.0
30/08:30am 13.2 4.9 6.1 62 3.4 SE 39 52 21 28 1017.2 1016.9 0.0
30/08:00am 12.4 5.9 6.5 67 2.8 SE 30 37 16 20 1017.2 1016.9 0.0
30/07:30am 11.8 5.2 6.1 68 2.7 SE 30 41 16 22 1017.4 1017.1 0.0
30/07:00am 11.5 5.6 5.8 68 2.7 SE 26 35 14 19 1017.4 1017.1 0.0
30/06:30am 11.1 5.5 5.4 68 2.6 SE 24 33 13 18 1017.5 1017.2 0.0
30/05:30am 11.0 5.3 5.1 67 2.7 SE 24 35 13 19 1017.6 1017.3 0.0
30/05:00am 10.9 5.6 5.2 68 2.6 SE 22 30 12 16 1017.7 1017.4 0.0
30/04:30am 10.8 5.5 5.1 68 2.6 SE 22 30 12 16 1018.0 1017.7 0.0
30/04:00am 11.0 3.8 4.9 66 2.8 SSE 32 43 17 23 1018.3 1017.9 0.0
30/03:30am 10.8 5.1 5.1 68 2.6 SSE 24 33 13 18 1018.7 1018.3 0.0
30/03:00am 10.7 4.3 5.3 69 2.5 SE 28 37 15 20 1019.1 1018.7 0.0
30/02:30am 11.0 3.8 5.1 67 2.7 SE 32 41 17 22 1019.6 1019.2 0.0
30/02:00am 11.1 4.2 4.8 65 2.9 SSE 30 39 16 21 1019.5 1019.1 0.0
30/01:30am 11.0 4.9 4.9 66 2.8 SSE 26 35 14 19 1019.7 1019.3 0.0
30/01:00am 10.8 4.3 4.9 67 2.7 SSE 28 37 15 20 1020.1 1019.7 0.0
30/12:30am 11.5 4.1 4.0 60 3.4 SSE 32 48 17 26 1020.4 1020.0 0.0
30/12:00am 11.6 4.1 3.4 57 3.6 SSE 32 44 17 24 1020.5 1020.1 0.0
 
Date/Time
EDT
Temp
°C
App
Temp
°C
Dew
Point
Rel
Hum
%
Delta-T
°C
Wind Press
QNH
hPa
Press
MSL
hPa
Rain
since 9 am
mm
Dir
 
Spd
km/h
Gust
km/h
Spd
kts
Gust
kts
29/11:30pm 11.7 5.0 3.5 57 3.7 SSE 28 39 15 21 1021.0 1020.6 0.0
29/11:00pm 11.6 4.9 3.4 57 3.6 SSE 28 46 15 25 1021.1 1020.7 0.0
29/10:56pm 11.7 5.0 3.5 57 3.7 SSE 28 46 15 25 1021.1 1020.7 0.0
29/10:30pm 11.7 4.2 3.2 56 3.8 SSE 32 41 17 22 1021.3 1020.9 0.0
29/10:00pm 12.3 4.2 3.3 54 4.0 SSE 35 46 19 25 1021.3 1020.9 0.0
29/09:30pm 12.6 4.6 3.8 55 4.0 SSE 35 44 19 24 1021.4 1021.0 0.0
29/09:17pm 12.5 5.8 3.5 54 4.0 SSE 28 50 15 27 1021.5 1021.1 0.0
29/08:30pm 12.5 5.3 5.7 63 3.2 SE 33 44 18 24 1021.2 1020.8 0.0
29/08:08pm 12.7 5.4 5.4 61 3.4 SE 33 52 18 28 1020.9 1020.5 0.0
29/08:00pm 13.0 5.6 5.2 59 3.6 SE 33 46 18 25 1020.9 1020.5 0.0
29/07:30pm 14.0 5.9 5.4 56 4.1 SE 37 52 20 28 1020.8 1020.4 0.0
29/07:00pm 15.0 7.5 6.3 56 4.2 SSE 35 46 19 25 1020.8 1020.4 0.0
29/06:30pm 16.3 8.1 4.7 46 5.5 SSE 37 50 20 27 1020.6 1020.2 0.0
29/05:30pm 16.6 9.1 4.3 44 5.8 SSE 33 46 18 25 1020.7 1020.3 0.0
29/05:00pm 17.8 10.0 5.1 43 6.1 SSE 35 44 19 24 1020.8 1020.4 0.0
29/04:30pm 17.3 10.1 4.9 44 6.0 SSE 32 44 17 24 1021.0 1020.6 0.0
29/04:00pm 17.6 11.2 5.2 44 6.0 SE 28 37 15 20 1021.4 1021.0 0.0
29/03:30pm 17.5 10.6 4.5 42 6.2 SSE 30 39 16 21 1021.6 1021.2 0.0
29/03:00pm 17.1 9.2 4.4 43 6.0 SE 35 44 19 24 1021.9 1021.5 0.0
29/02:32pm 17.3 9.8 4.3 42 6.2 SSE 33 52 18 28 1021.9 1021.5 0.0
29/02:30pm 18.1 11.0 5.3 43 6.2 SSE 32 48 17 26 1021.8 1021.4 0.0
29/02:00pm 17.1 9.7 5.1 45 5.8 SSE 33 52 18 28 1022.0 1021.7 0.0
29/01:57pm 17.2 9.8 4.9 44 5.9 SSE 33 52 18 28 1022.0 1021.7 0.0
29/01:30pm 17.9 10.0 6.1 46 5.8 SSE 37 50 20 27 1022.2 1021.9 0.0
29/01:00pm 18.0 10.0 5.9 45 5.9 SSE 37 48 20 26 1022.4 1022.1 0.0
29/12:30pm 16.5 8.4 5.2 47 5.4 SSE 37 50 20 27 1022.8 1022.5 0.0
29/12:00pm 16.2 9.2 5.8 50 5.0 SSE 32 48 17 26 1023.2 1022.9 0.0
29/11:30am 15.9 8.5 6.9 55 4.5 SSE 35 46 19 25 1023.4 1023.1 0.0
29/11:00am 15.0 7.5 6.3 56 4.2 SE 35 44 19 24 1023.5 1023.2 0.0
29/10:30am 14.5 6.9 5.8 56 4.2 SSE 35 44 19 24 1023.5 1023.2 0.0
29/10:00am 14.3 6.2 5.4 55 4.2 SE 37 46 20 25 1023.5 1023.2 0.0
29/09:30am 14.5 6.5 5.8 56 4.2 SE 37 50 20 27 1023.6 1023.3 0.0
29/09:00am 12.8 5.1 5.2 60 3.5 SSE 35 48 19 26 1023.8 1023.5 0.0
29/08:30am 13.0 6.3 5.4 60 3.6 SE 30 44 16 24 1023.5 1023.2 0.0
29/08:00am 12.1 5.6 6.4 68 2.7 SE 30 41 16 22 1023.3 1023.0 0.0
29/07:30am 11.2 5.1 6.5 73 2.2 SE 28 39 15 21 1023.3 1023.0 0.0
29/07:00am 10.2 4.8 6.2 76 1.9 SSE 24 32 13 17 1023.1 1022.8 0.0
29/06:30am 9.9 4.8 6.1 77 1.8 SSE 22 35 12 19 1022.9 1022.6 0.0
29/06:00am 9.6 4.1 6.1 79 1.6 SSE 24 32 13 17 1022.9 1022.6 0.0
29/05:30am 9.4 3.9 5.9 79 1.6 SSE 24 33 13 18 1022.8 1022.5 0.0
29/05:00am 9.2 4.1 5.8 79 1.6 SSE 22 30 12 16 1022.7 1022.4 0.0
29/04:30am 9.3 3.8 5.7 78 1.7 SSE 24 30 13 16 1022.7 1022.4 0.0
29/04:00am 9.3 4.6 5.9 79 1.6 SSE 20 28 11 15 1022.7 1022.4 0.0
29/03:30am 9.4 3.9 5.8 78 1.7 SE 24 33 13 18 1022.7 1022.4 0.0
29/03:00am 9.6 3.7 5.6 76 1.8 SSE 26 32 14 17 1022.8 1022.5 0.0
29/02:30am 9.4 4.2 5.6 77 1.7 SSE 22 28 12 15 1023.2 1022.9 0.0
29/02:00am 9.0 4.3 5.2 77 1.7 SE 19 22 10 12 1023.3 1023.0 0.0
29/01:30am 9.8 4.5 5.0 72 2.2 SSE 22 30 12 16 1023.6 1023.3 0.0
29/01:00am 10.3 3.9 5.3 71 2.3 SE 28 35 15 19 1023.7 1023.4 0.0
29/12:30am 10.2 5.0 5.6 73 2.1 SSE 22 32 12 17 1023.9 1023.6 0.0
29/12:00am 10.2 5.6 5.6 73 2.1 SSE 19 26 10 14 1024.0 1023.7 0.0
 
Date/Time
EDT
Temp
°C
App
Temp
°C
Dew
Point
Rel
Hum
%
Delta-T
°C
Wind Press
QNH
hPa
Press
MSL
hPa
Rain
since 9 am
mm
Dir
 
Spd
km/h
Gust
km/h
Spd
kts
Gust
kts
28/11:30pm 9.8 5.0 5.6 75 1.9 SE 20 24 11 13 1024.0 1023.7 0.0
28/11:00pm 10.3 5.1 5.5 72 2.2 SSE 22 28 12 15 1024.4 1024.0 0.0
28/10:30pm 10.5 5.6 5.3 70 2.4 SSE 20 32 11 17 1024.4 1024.0 0.0
28/10:00pm 11.2 4.4 4.9 65 2.9 SSE 30 39 16 21 1024.5 1024.1 0.0
28/09:46pm 11.9 5.3 4.4 60 3.4 SSE 28 46 15 25 1024.2 1023.9 0.0
28/09:30pm 12.1 5.2 4.6 60 3.4 SSE 30 44 16 24 1024.2 1023.9 0.0
28/09:00pm 12.4 6.3 4.9 60 3.5 SE 26 39 14 21 1023.9 1023.6 0.0
28/08:30pm 13.2 6.3 4.4 55 4.1 SSE 30 41 16 22 1023.7 1023.4 0.0
28/08:00pm 13.4 6.7 3.8 52 4.4 SSE 28 37 15 20 1023.5 1023.2 0.0
28/07:30pm 14.7 6.5 2.6 44 5.4 SE 35 50 19 27 1023.2 1022.9 0.0
28/07:00pm 15.4 7.3 3.2 44 5.6 SSE 35 43 19 23 1023.0 1022.7 0.0
28/06:30pm 17.0 9.1 4.3 43 6.0 SE 35 44 19 24 1022.6 1022.3 0.0
28/06:00pm 17.2 8.9 2.4 37 6.7 SSE 35 43 19 23 1022.5 1022.2 0.0
28/05:30pm 16.2 8.3 1.1 36 6.7 SE 32 44 17 24 1022.2 1021.9 0.0
28/05:00pm 18.0 9.6 1.5 33 7.4 SSE 35 46 19 25 1022.3 1022.0 0.0
28/04:30pm 18.0 9.7 2.3 35 7.2 SE 35 48 19 26 1022.3 1022.0 0.0
28/04:00pm 18.3 10.1 2.6 35 7.2 SSE 35 50 19 27 1022.4 1022.1 0.0
28/03:45pm 18.6 10.6 1.6 32 7.7 SSE 33 44 18 24 1022.2 1021.9 0.0
28/03:30pm 18.7 10.0 2.1 33 7.6 SSE 37 50 20 27 1022.4 1022.1 0.0
28/03:00pm 17.6 9.7 4.2 41 6.3 SE 35 48 19 26 1022.5 1022.2 0.0
28/02:30pm 19.4 11.1 4.3 37 7.3 SSE 37 54 20 29 1022.6 1022.3 0.0
28/02:07pm 17.6 10.0 5.9 46 5.8 SE 35 54 19 29 1022.6 1022.3 0.0
28/02:00pm 18.3 10.6 5.2 42 6.4 SE 35 48 19 26 1022.6 1022.3 0.0
28/01:30pm 17.9 10.5 5.2 43 6.2 SSE 33 44 18 24 1022.8 1022.5 0.0
28/01:00pm 17.0 9.9 5.3 46 5.6 SE 32 39 17 21 1022.9 1022.6 0.0
28/12:30pm 17.1 9.7 4.1 42 6.1 SSE 32 46 17 25 1023.1 1022.8 0.0
28/12:00pm 16.7 9.1 5.6 48 5.4 SE 35 46 19 25 1023.0 1022.7 0.0
28/11:30am 17.5 10.5 6.1 47 5.6 SE 32 43 17 23 1022.9 1022.6 0.0
28/11:00am 15.6 8.7 6.6 55 4.4 SSE 32 46 17 25 1023.3 1023.0 0.0
28/10:30am 15.7 8.6 5.3 50 5.0 SSE 32 48 17 26 1023.2 1022.9 0.0
28/10:29am 15.9 9.2 5.5 50 5.0 SSE 30 48 16 26 1023.2 1022.9 0.0
28/10:00am 15.4 8.3 5.6 52 4.7 SSE 32 44 17 24 1023.2 1022.9 0.0
28/09:30am 15.1 8.1 5.9 54 4.4 SSE 32 43 17 23 1023.0 1022.7 0.0
28/09:00am 13.7 6.6 5.3 57 3.9 SE 32 43 17 23 1023.1 1022.8 0.0
28/08:30am 12.8 6.1 5.5 61 3.4 SE 30 35 16 19 1022.9 1022.6 0.0
28/08:00am 12.0 6.8 5.6 65 3.0 SE 22 33 12 18 1022.6 1022.3 0.0
28/07:30am 10.6 6.4 5.8 72 2.2 SE 17 26 9 14 1022.2 1021.9 0.0
28/07:00am 9.4 4.6 5.8 78 1.7 SSE 20 26 11 14 1022.0 1021.7 0.0
28/06:30am 8.8 4.2 5.5 80 1.5 SE 19 24 10 13 1021.7 1021.3 0.0
28/06:00am 8.6 3.8 5.4 80 1.4 SE 20 26 11 14 1021.4 1021.0 0.0
28/05:30am 9.3 3.8 5.7 78 1.7 SE 24 32 13 17 1021.0 1020.6 0.0
28/05:00am 9.3 3.8 6.0 80 1.5 SE 24 32 13 17 1020.8 1020.4 0.0
28/04:30am 9.3 4.2 6.0 80 1.5 SE 22 28 12 15 1020.8 1020.4 0.0
28/04:00am 9.9 4.4 6.1 77 1.8 SSE 24 30 13 16 1020.6 1020.2 0.0
28/03:30am 10.0 4.9 6.2 77 1.8 SSE 22 32 12 17 1020.7 1020.3 0.0
28/03:00am 10.5 4.8 6.5 76 1.9 SSE 26 35 14 19 1020.8 1020.4 0.0
28/02:30am 10.6 4.5 6.6 76 1.9 SSE 28 33 15 18 1020.8 1020.4 0.0
28/02:00am 10.6 5.3 6.7 77 1.8 SSE 24 32 13 17 1020.9 1020.5 0.0
28/01:30am 10.8 5.9 7.1 78 1.8 SSE 22 32 12 17 1020.8 1020.4 0.0
28/01:00am 11.3 5.6 6.8 74 2.1 SSE 26 33 14 18 1020.7 1020.3 0.0
28/12:30am 12.1 7.2 6.8 70 2.6 SE 22 32 12 17 1020.6 1020.2 0.0
28/12:00am 12.2 6.9 6.9 70 2.6 SSE 24 33 13 18 1020.7 1020.3 0.0
 
Date/Time
EDT
Temp
°C
App
Temp
°C
Dew
Point
Rel
Hum
%
Delta-T
°C
Wind Press
QNH
hPa
Press
MSL
hPa
Rain
since 9 am
mm
Dir
 
Spd
km/h
Gust
km/h
Spd
kts
Gust
kts
27/11:30pm 12.0 7.1 6.9 71 2.5 SSE 22 28 12 15 1020.5 1020.1 0.0
27/11:00pm 12.2 7.9 7.1 71 2.5 SSE 19 24 10 13 1020.3 1019.9 0.0
27/10:30pm 12.5 8.6 7.0 69 2.7 SSE 17 20 9 11 1020.1 1019.7 0.0
27/10:00pm 13.2 9.3 7.0 66 3.0 SSE 17 19 9 10 1019.8 1019.4 0.0
27/09:30pm 14.1 9.8 6.9 62 3.5 SSE 19 24 10 13 1019.4 1019.0 0.0
27/09:00pm 15.3 12.7 7.8 61 3.8 ESE 11 15 6 8 1019.0 1018.6 0.0
27/08:30pm 15.9 12.9 7.9 59 4.1 ENE 13 17 7 9 1018.2 1017.8 0.0
27/08:00pm 16.9 13.0 7.3 53 4.8 NE 17 22 9 12 1017.6 1017.3 0.0
27/07:30pm 18.5 13.7 5.7 43 6.3 SE 20 28 11 15 1017.2 1016.9 0.0
27/07:00pm 18.9 12.3 6.1 43 6.4 SE 30 39 16 21 1016.7 1016.3 0.0
27/06:30pm 18.9 12.1 7.0 46 6.0 SSE 32 43 17 23 1016.1 1015.7 0.0
27/06:00pm 19.4 13.7 5.1 39 7.0 SE 24 33 13 18 1015.7 1015.3 0.0
27/05:30pm 19.3 12.1 5.0 39 7.0 SE 32 44 17 24 1015.6 1015.2 0.0
27/05:00pm 22.1 15.7 5.1 33 8.5 SSE 28 39 15 21 1015.2 1014.8 0.0
27/04:30pm 22.6 17.6 1.6 25 9.9 S 17 22 9 12 1015.0 1014.6 0.0
27/04:00pm 22.1 16.6 0.6 24 9.9 SSE 19 28 10 15 1015.1 1014.7 0.0

Other Formats:

Comma delimited format used in spreadsheet applications
http://www.bom.gov.au/fwo/IDT60801/IDT60801.95966.axf

JavaScript Object Notation format (JSON) in row-major order
http://www.bom.gov.au/fwo/IDT60801/IDT60801.95966.json